Time;durP1;ratioP1;P1;durP2;ratioP2;P2;SDS_P1;SDS_P2;PMS_P1;PMS_P2;Temp;Humidity;BMP_temperature;BMP_pressure;BME280_temperature;BME280_humidity;BME280_pressure;Samples;Min_cycle;Max_cycle;Signal;HPM_P1;HPM_P2
2022/11/30 00:00:15;;;;;;;;;;;;;;;9.09;49.71;99719.91;4509680;31;34504;-89
2022/11/30 00:02:43;;;;;;;;;;;;;;;8.94;49.79;99713.50;4509143;31;33798;-84
2022/11/30 00:05:11;;;;;;;;;;;;;;;8.97;50.05;99712.69;4504252;31;33992;-85
2022/11/30 00:07:38;;;;;;;;;;;;;;;8.51;50.94;99714.81;4512940;31;34103;-88
2022/11/30 00:10:06;;;;;;;;;;;;;;;9.17;49.57;99713.25;4513266;31;34268;-86
2022/11/30 00:12:33;;;;;;;;;;;;;;;9.37;48.84;99713.78;4499529;31;32016;-85
2022/11/30 00:15:00;;;;;;;;;;;;;;;9.16;49.14;99708.88;4500787;31;33538;-88
2022/11/30 00:17:28;;;;;;;;;;;;;;;9.25;48.89;99706.56;4501588;31;34464;-86
2022/11/30 00:19:55;;;;;;;;;;;;;;;9.69;48.36;99704.22;4510919;31;35242;-84
2022/11/30 00:22:22;;;;;;;;;;;;;;;10.04;47.12;99705.09;4512932;31;34356;-85
2022/11/30 00:24:49;;;;;;;;;;;;;;;10.62;45.88;99701.22;4511931;31;34075;-86
2022/11/30 00:27:17;;;;;;;;;;;;;;;10.33;46.35;99710.09;4507519;31;35168;-84
2022/11/30 00:29:44;;;;;;;;;;;;;;;11.12;45.02;99709.16;4499635;31;34245;-86
2022/11/30 00:32:11;;;;;;;;;;;;;;;11.01;44.68;99700.28;4504281;31;33620;-87
2022/11/30 00:34:38;;;;;;;;;;;;;;;10.90;44.89;99700.06;4504035;31;34785;-88
2022/11/30 00:37:05;;;;;;;;;;;;;;;11.17;43.96;99699.75;4508257;31;35089;-86
2022/11/30 00:39:33;;;;;;;;;;;;;;;10.89;44.76;99702.63;4500036;31;34554;-87
2022/11/30 00:42:01;;;;;;;;;;;;;;;9.66;46.79;99707.62;4499135;31;33233;-86
2022/11/30 00:44:28;;;;;;;;;;;;;;;10.04;45.88;99712.88;4496351;31;33683;-88
2022/11/30 00:46:56;;;;;;;;;;;;;;;9.74;46.65;99716.47;4507212;31;34052;-86
2022/11/30 00:49:23;;;;;;;;;;;;;;;9.39;47.71;99707.78;4499495;31;35167;-86
2022/11/30 00:51:51;;;;;;;;;;;;;;;10.07;46.10;99715.50;4510948;31;33402;-86
2022/11/30 00:54:19;;;;;;;;;;;;;;;10.53;45.13;99707.91;4501789;31;34333;-88
2022/11/30 00:56:46;;;;;;;;;;;;;;;10.33;45.58;99717.84;4505904;31;35193;-89
2022/11/30 00:59:14;;;;;;;;;;;;;;;9.57;46.83;99717.75;4505151;31;34090;-87
2022/11/30 01:01:42;;;;;;;;;;;;;;;9.15;47.65;99725.25;4510830;31;33625;-87
2022/11/30 01:04:09;;;;;;;;;;;;;;;9.93;46.34;99717.78;4515213;31;34983;-88
2022/11/30 01:06:36;;;;;;;;;;;;;;;10.05;45.71;99717.19;4512672;31;32969;-85
2022/11/30 01:09:04;;;;;;;;;;;;;;;9.63;46.25;99717.91;4507215;31;32645;-86
2022/11/30 01:11:31;;;;;;;;;;;;;;;8.85;48.58;99735.59;4505691;31;34246;-88
2022/11/30 01:13:58;;;;;;;;;;;;;;;9.17;47.69;99731.34;4503776;31;35085;-84
2022/11/30 01:16:30;;;;;;;;;;;;;;;9.27;47.12;99729.03;4499660;31;35392;-85
2022/11/30 01:18:57;;;;;;;;;;;;;;;9.71;46.33;99721.56;4501235;31;34466;-86
2022/11/30 01:21:25;;;;;;;;;;;;;;;9.52;46.29;99718.47;4511090;31;33682;-86
2022/11/30 01:23:52;;;;;;;;;;;;;;;9.46;46.99;99711.41;4513976;31;34739;-86
2022/11/30 01:26:20;;;;;;;;;;;;;;;9.25;47.00;99719.50;4513831;31;34506;-87
2022/11/30 01:28:53;;;;;;;;;;;;;;;9.65;46.48;99713.63;4513420;31;35018;-86
2022/11/30 01:31:22;;;;;;;;;;;;;;;8.35;49.86;99714.28;4512263;31;33258;-86
2022/11/30 01:33:50;;;;;;;;;;;;;;;9.66;46.12;99712.81;4503771;31;34066;-86
2022/11/30 01:36:19;;;;;;;;;;;;;;;9.86;45.85;99704.66;4512145;31;35337;-86
2022/11/30 01:38:48;;;;;;;;;;;;;;;10.43;44.18;99702.56;4510639;31;35147;-86
2022/11/30 01:41:25;;;;;;;;;;;;;;;10.85;43.39;99698.22;4504839;31;33711;-86
2022/11/30 01:43:54;;;;;;;;;;;;;;;11.20;42.77;99698.91;4512734;31;34226;-84
2022/11/30 01:46:30;;;;;;;;;;;;;;;10.58;43.76;99698.53;4512370;31;34092;-86
2022/11/30 01:49:10;;;;;;;;;;;;;;;11.20;42.61;99691.13;4510482;31;35848;-87
2022/11/30 01:51:44;;;;;;;;;;;;;;;11.30;41.98;99694.78;4513467;31;35178;-84
2022/11/30 01:54:12;;;;;;;;;;;;;;;11.90;40.82;99696.72;4506756;31;34066;-87
2022/11/30 01:56:40;;;;;;;;;;;;;;;11.92;40.42;99689.78;4510944;31;35103;-88
2022/11/30 01:59:08;;;;;;;;;;;;;;;11.65;40.53;99696.25;4511643;31;34791;-86
2022/11/30 02:01:35;;;;;;;;;;;;;;;11.15;41.10;99687.56;4508948;31;33122;-86
2022/11/30 02:04:11;;;;;;;;;;;;;;;11.18;40.98;99700.62;4513949;31;34047;-86
2022/11/30 02:06:38;;;;;;;;;;;;;;;11.00;41.44;99687.28;4506418;31;33767;-85
2022/11/30 02:09:06;;;;;;;;;;;;;;;11.54;40.64;99694.31;4506583;31;34070;-87
2022/11/30 02:11:33;;;;;;;;;;;;;;;11.18;40.91;99688.50;4500778;31;34106;-86
2022/11/30 02:14:06;;;;;;;;;;;;;;;10.70;41.96;99701.38;4512807;31;34156;-86
2022/11/30 02:16:53;;;;;;;;;;;;;;;10.95;41.75;99687.22;4505297;31;34330;-85
2022/11/30 02:19:27;;;;;;;;;;;;;;;11.04;40.71;99691.69;4512810;31;34008;-87
2022/11/30 02:21:57;;;;;;;;;;;;;;;10.65;41.34;99696.13;4507981;31;33430;-86
2022/11/30 02:24:33;;;;;;;;;;;;;;;9.70;43.25;99706.00;4503177;31;34223;-87
2022/11/30 02:27:08;;;;;;;;;;;;;;;11.00;41.05;99680.37;4506397;31;33039;-85
2022/11/30 02:29:43;;;;;;;;;;;;;;;11.04;40.84;99682.19;4506436;31;34557;-84
2022/11/30 02:32:33;;;;;;;;;;;;;;;10.29;41.86;99685.81;4499681;31;33307;-86
2022/11/30 02:35:00;;;;;;;;;;;;;;;10.70;42.18;99683.22;4495160;31;34340;-85
2022/11/30 02:37:28;;;;;;;;;;;;;;;11.03;41.03;99683.03;4499000;31;34295;-87
2022/11/30 02:39:56;;;;;;;;;;;;;;;11.44;40.59;99675.13;4501644;31;34544;-87
2022/11/30 02:42:23;;;;;;;;;;;;;;;11.97;39.52;99664.78;4500776;31;33458;-88
2022/11/30 02:44:51;;;;;;;;;;;;;;;12.08;39.08;99670.97;4507375;31;34045;-87
2022/11/30 02:47:36;;;;;;;;;;;;;;;12.09;39.42;99683.13;4506915;31;34187;-88
2022/11/30 02:50:06;;;;;;;;;;;;;;;11.92;39.07;99676.81;4509581;31;34445;-86
2022/11/30 02:52:33;;;;;;;;;;;;;;;11.32;39.67;99672.28;4510677;31;34066;-86
2022/11/30 02:55:05;;;;;;;;;;;;;;;11.03;40.44;99683.03;4513262;31;33898;-86
2022/11/30 02:57:32;;;;;;;;;;;;;;;10.86;41.90;99680.09;4504601;31;35197;-86
2022/11/30 03:00:00;;;;;;;;;;;;;;;10.59;41.66;99685.59;4506903;31;34398;-88
2022/11/30 03:02:27;;;;;;;;;;;;;;;11.02;40.54;99676.06;4501434;31;32333;-87
2022/11/30 03:04:54;;;;;;;;;;;;;;;10.38;42.03;99680.84;4504054;31;34256;-88
2022/11/30 03:07:21;;;;;;;;;;;;;;;11.08;40.68;99675.34;4507425;31;34104;-85
2022/11/30 03:09:49;;;;;;;;;;;;;;;10.73;41.12;99672.06;4500523;31;35121;-86
2022/11/30 03:12:16;;;;;;;;;;;;;;;10.95;41.17;99672.50;4510181;31;32903;-86
2022/11/30 03:14:43;;;;;;;;;;;;;;;10.63;41.21;99681.34;4508338;31;34885;-88
2022/11/30 03:17:11;;;;;;;;;;;;;;;10.69;41.29;99674.59;4512969;31;35025;-86
2022/11/30 03:19:38;;;;;;;;;;;;;;;10.74;41.05;99679.00;4510539;31;34468;-86
2022/11/30 03:22:05;;;;;;;;;;;;;;;10.43;41.69;99686.13;4510047;31;34265;-86
2022/11/30 03:24:33;;;;;;;;;;;;;;;10.34;41.85;99698.88;4512665;31;34962;-85
2022/11/30 03:27:00;;;;;;;;;;;;;;;9.92;43.04;99692.69;4500106;31;34349;-88
2022/11/30 03:29:27;;;;;;;;;;;;;;;10.10;42.67;99692.25;4503301;31;34435;-87
2022/11/30 03:31:54;;;;;;;;;;;;;;;10.02;42.67;99690.34;4513330;31;33592;-88
2022/11/30 03:34:25;;;;;;;;;;;;;;;9.82;42.83;99695.94;4499110;31;34283;-85
2022/11/30 03:36:52;;;;;;;;;;;;;;;9.68;43.08;99695.59;4499681;31;35338;-85
2022/11/30 03:39:19;;;;;;;;;;;;;;;9.68;43.04;99697.31;4503427;31;35112;-87
2022/11/30 03:41:47;;;;;;;;;;;;;;;10.11;42.28;99694.00;4506074;31;33136;-85
2022/11/30 03:44:14;;;;;;;;;;;;;;;9.65;42.85;99692.91;4506397;31;33844;-84
2022/11/30 03:46:41;;;;;;;;;;;;;;;9.32;44.27;99689.47;4508051;31;34454;-85
2022/11/30 03:49:08;;;;;;;;;;;;;;;9.83;43.13;99695.09;4505699;31;34586;-89
2022/11/30 03:51:36;;;;;;;;;;;;;;;9.72;43.04;99692.22;4507227;31;33758;-85
2022/11/30 03:54:03;;;;;;;;;;;;;;;10.34;42.04;99691.09;4508017;31;34324;-86
2022/11/30 03:56:30;;;;;;;;;;;;;;;9.19;44.53;99696.91;4511435;31;35250;-89
2022/11/30 03:58:57;;;;;;;;;;;;;;;10.29;42.09;99692.72;4509653;31;35212;-86
2022/11/30 04:01:25;;;;;;;;;;;;;;;10.17;42.42;99688.97;4512267;31;33611;-90
2022/11/30 04:03:53;;;;;;;;;;;;;;;10.12;42.05;99689.72;4513854;31;34823;-88
2022/11/30 04:06:20;;;;;;;;;;;;;;;10.62;41.45;99693.44;4514493;31;35299;-86
2022/11/30 04:08:48;;;;;;;;;;;;;;;10.80;40.91;99684.31;4513789;31;35055;-84
2022/11/30 04:11:15;;;;;;;;;;;;;;;10.54;41.36;99684.66;4514582;31;34547;-84
2022/11/30 04:13:42;;;;;;;;;;;;;;;11.18;40.43;99690.25;4511236;31;34226;-86
2022/11/30 04:16:11;;;;;;;;;;;;;;;10.78;40.60;99683.38;4504501;31;34345;-86
2022/11/30 04:18:38;;;;;;;;;;;;;;;9.61;44.10;99688.50;4512813;31;34975;-85
2022/11/30 04:21:12;;;;;;;;;;;;;;;10.31;41.92;99691.94;4507254;31;33352;-86
2022/11/30 04:23:39;;;;;;;;;;;;;;;11.14;40.05;99686.72;4511298;31;33964;-86
2022/11/30 04:26:07;;;;;;;;;;;;;;;11.13;39.66;99687.53;4504222;31;33788;-85
2022/11/30 04:28:34;;;;;;;;;;;;;;;11.28;39.76;99683.47;4498895;31;35159;-86
2022/11/30 04:31:02;;;;;;;;;;;;;;;10.98;40.11;99681.19;4507244;31;33996;-86
2022/11/30 04:33:29;;;;;;;;;;;;;;;10.81;40.21;99678.28;4499625;31;33980;-86
2022/11/30 04:35:57;;;;;;;;;;;;;;;10.96;40.29;99682.03;4497449;31;34512;-84
2022/11/30 04:38:50;;;;;;;;;;;;;;;11.34;39.38;99683.59;4499541;31;34326;-86
2022/11/30 04:41:17;;;;;;;;;;;;;;;10.82;40.48;99686.06;4502256;31;33442;-85
2022/11/30 04:43:45;;;;;;;;;;;;;;;10.28;41.00;99696.16;4503402;31;34983;-87
2022/11/30 04:46:12;;;;;;;;;;;;;;;10.42;41.55;99698.22;4509029;31;34476;-86
2022/11/30 04:48:39;;;;;;;;;;;;;;;10.41;41.50;99693.84;4508044;31;34168;-87
2022/11/30 04:51:07;;;;;;;;;;;;;;;10.86;40.32;99687.87;4510296;31;34496;-88
2022/11/30 04:53:35;;;;;;;;;;;;;;;10.59;41.12;99695.97;4503664;31;33911;-87
2022/11/30 04:56:05;;;;;;;;;;;;;;;10.80;40.46;99692.09;4509866;31;34333;-87
2022/11/30 04:58:33;;;;;;;;;;;;;;;10.97;40.40;99688.09;4513343;31;34210;-88
2022/11/30 05:01:00;;;;;;;;;;;;;;;11.54;39.05;99682.22;4509746;31;33640;-86
2022/11/30 05:03:27;;;;;;;;;;;;;;;11.55;39.19;99691.75;4499379;31;34128;-86
2022/11/30 05:05:54;;;;;;;;;;;;;;;11.03;39.66;99688.22;4499157;31;34239;-88
2022/11/30 05:08:22;;;;;;;;;;;;;;;11.36;38.88;99685.34;4500827;31;34220;-87
2022/11/30 05:10:52;;;;;;;;;;;;;;;11.56;38.50;99692.66;4510934;31;33432;-86
2022/11/30 05:13:20;;;;;;;;;;;;;;;10.88;39.75;99685.34;4512469;31;35119;-87
2022/11/30 05:15:47;;;;;;;;;;;;;;;11.16;39.53;99687.59;4507229;31;33955;-87
2022/11/30 05:18:15;;;;;;;;;;;;;;;10.68;40.02;99700.47;4500109;31;34681;-89
2022/11/30 05:20:49;;;;;;;;;;;;;;;10.48;40.24;99700.06;4499905;31;33567;-88
2022/11/30 05:23:16;;;;;;;;;;;;;;;10.36;40.43;99707.56;4504515;31;34137;-87
2022/11/30 05:25:43;;;;;;;;;;;;;;;10.43;40.59;99704.28;4500398;31;35047;-89
2022/11/30 05:28:11;;;;;;;;;;;;;;;9.75;41.55;99707.84;4505237;31;34227;-87
2022/11/30 05:30:39;;;;;;;;;;;;;;;9.63;42.00;99709.28;4506743;31;34348;-87
2022/11/30 05:33:06;;;;;;;;;;;;;;;9.23;42.71;99711.69;4508996;31;34305;-85
2022/11/30 05:35:33;;;;;;;;;;;;;;;9.44;42.36;99708.78;4504727;31;33840;-89
2022/11/30 05:38:00;;;;;;;;;;;;;;;9.89;41.74;99710.78;4498760;31;33818;-85
2022/11/30 05:40:29;;;;;;;;;;;;;;;9.51;42.36;99707.25;4513302;31;33745;-87
2022/11/30 05:42:56;;;;;;;;;;;;;;;9.92;41.56;99707.38;4515569;31;33439;-85
2022/11/30 05:45:23;;;;;;;;;;;;;;;9.50;42.88;99706.34;4510110;31;35015;-85
2022/11/30 05:47:51;;;;;;;;;;;;;;;9.46;42.41;99708.81;4510820;31;34255;-85
2022/11/30 05:50:18;;;;;;;;;;;;;;;9.74;42.17;99713.88;4511649;31;33260;-84
2022/11/30 05:52:56;;;;;;;;;;;;;;;9.88;41.12;99711.59;4515992;31;33831;-87
2022/11/30 05:55:24;;;;;;;;;;;;;;;9.54;42.41;99703.84;4502094;31;34519;-85
2022/11/30 05:57:51;;;;;;;;;;;;;;;10.10;41.38;99713.00;4498609;31;35152;-88
2022/11/30 06:00:18;;;;;;;;;;;;;;;9.85;41.47;99711.56;4500836;31;33684;-87
2022/11/30 06:02:46;;;;;;;;;;;;;;;10.28;41.01;99714.31;4498373;31;34939;-89
2022/11/30 06:05:13;;;;;;;;;;;;;;;10.11;41.10;99711.28;4500665;31;34104;-86
2022/11/30 06:07:40;;;;;;;;;;;;;;;9.75;41.67;99715.62;4514210;31;34411;-87
2022/11/30 06:10:08;;;;;;;;;;;;;;;9.97;41.45;99718.75;4506469;31;34027;-87
2022/11/30 06:12:35;;;;;;;;;;;;;;;9.63;41.78;99722.22;4514112;31;33800;-85
2022/11/30 06:15:03;;;;;;;;;;;;;;;10.00;40.90;99721.41;4515401;31;34626;-87
2022/11/30 06:17:30;;;;;;;;;;;;;;;10.23;40.69;99732.31;4514024;31;35403;-86
2022/11/30 06:19:57;;;;;;;;;;;;;;;9.33;42.38;99730.06;4514534;31;34184;-87
2022/11/30 06:22:24;;;;;;;;;;;;;;;9.55;41.93;99731.50;4513301;31;33758;-88
2022/11/30 06:24:52;;;;;;;;;;;;;;;9.62;41.48;99733.38;4507584;31;33984;-86
2022/11/30 06:27:19;;;;;;;;;;;;;;;9.27;42.19;99731.63;4515389;31;34581;-84
2022/11/30 06:29:46;;;;;;;;;;;;;;;9.46;42.09;99739.88;4514444;31;34076;-87
2022/11/30 06:32:13;;;;;;;;;;;;;;;9.03;42.60;99736.13;4508382;31;33695;-86
2022/11/30 06:34:41;;;;;;;;;;;;;;;9.59;41.90;99736.78;4510623;31;34869;-86
2022/11/30 06:37:08;;;;;;;;;;;;;;;9.17;42.03;99737.41;4514886;31;34756;-86
2022/11/30 06:39:35;;;;;;;;;;;;;;;9.75;41.26;99746.69;4515356;31;33215;-87
2022/11/30 06:42:22;;;;;;;;;;;;;;;9.16;42.24;99752.84;4515055;31;34202;-85
2022/11/30 06:44:50;;;;;;;;;;;;;;;9.19;42.69;99746.06;4515041;31;34001;-86
2022/11/30 06:47:18;;;;;;;;;;;;;;;9.54;41.57;99742.66;4513751;31;35259;-87
2022/11/30 06:49:45;;;;;;;;;;;;;;;9.37;41.55;99745.69;4515278;31;34172;-84
2022/11/30 06:52:13;;;;;;;;;;;;;;;9.44;41.85;99745.03;4514198;31;35029;-87
2022/11/30 06:54:40;;;;;;;;;;;;;;;9.17;42.02;99752.06;4512371;31;34494;-84
2022/11/30 06:57:07;;;;;;;;;;;;;;;9.32;41.92;99746.38;4499281;31;34423;-87
2022/11/30 06:59:36;;;;;;;;;;;;;;;9.97;40.81;99742.91;4499141;31;34075;-87
2022/11/30 07:02:03;;;;;;;;;;;;;;;9.22;41.70;99746.16;4499356;31;35297;-87
2022/11/30 07:04:38;;;;;;;;;;;;;;;10.01;40.80;99746.47;4501273;31;34480;-87
2022/11/30 07:07:06;;;;;;;;;;;;;;;9.70;40.73;99750.88;4513343;31;34638;-86
2022/11/30 07:09:33;;;;;;;;;;;;;;;9.86;40.85;99746.09;4515072;31;34459;-84
2022/11/30 07:12:01;;;;;;;;;;;;;;;10.04;40.51;99745.62;4514015;31;35091;-87
2022/11/30 07:14:29;;;;;;;;;;;;;;;10.46;39.29;99740.63;4513580;31;35333;-85
2022/11/30 07:16:56;;;;;;;;;;;;;;;10.37;39.66;99741.28;4508443;31;33849;-85
2022/11/30 07:19:24;;;;;;;;;;;;;;;9.94;40.49;99744.56;4499222;31;34395;-85
2022/11/30 07:21:51;;;;;;;;;;;;;;;10.39;39.67;99741.34;4499264;31;34914;-84
2022/11/30 07:27:04;;;;;;;;;;;;;;;9.92;40.49;99747.09;4504861;31;34670;-87
2022/11/30 07:29:31;;;;;;;;;;;;;;;10.52;39.47;99738.16;4514073;31;33921;-85
2022/11/30 07:31:58;;;;;;;;;;;;;;;11.65;37.72;99735.22;4515049;31;33756;-85
2022/11/30 07:34:26;;;;;;;;;;;;;;;11.34;37.90;99732.91;4515070;31;33932;-87
2022/11/30 07:36:53;;;;;;;;;;;;;;;10.37;39.37;99741.28;4510406;31;33918;-87
2022/11/30 07:39:20;;;;;;;;;;;;;;;10.33;39.70;99749.84;4499253;31;33676;-86
2022/11/30 07:41:48;;;;;;;;;;;;;;;10.12;39.54;99744.13;4499062;31;34293;-84
2022/11/30 07:44:16;;;;;;;;;;;;;;;10.33;39.34;99736.00;4498987;31;35381;-84
2022/11/30 07:46:43;;;;;;;;;;;;;;;10.66;39.03;99746.25;4501899;31;34303;-87
2022/11/30 07:49:10;;;;;;;;;;;;;;;11.61;37.70;99730.81;4514571;31;34458;-84
2022/11/30 07:51:37;;;;;;;;;;;;;;;11.36;37.22;99733.81;4514960;31;34996;-85
2022/11/30 07:54:05;;;;;;;;;;;;;;;11.10;37.18;99735.91;4514926;31;35253;-84
2022/11/30 07:56:32;;;;;;;;;;;;;;;10.02;39.10;99747.34;4505096;31;34542;-87
2022/11/30 07:58:59;;;;;;;;;;;;;;;10.37;39.49;99748.19;4498745;31;33943;-85
2022/11/30 08:01:28;;;;;;;;;;;;;;;11.04;39.30;99743.59;4498777;31;34017;-85
2022/11/30 08:03:55;;;;;;;;;;;;;;;11.33;37.61;99746.75;4498501;31;35248;-87
2022/11/30 08:06:24;;;;;;;;;;;;;;;11.15;37.51;99735.16;4501212;31;35328;-86
2022/11/30 08:08:52;;;;;;;;;;;;;;;11.16;39.37;99736.91;4505236;31;34359;-87
2022/11/30 08:11:20;;;;;;;;;;;;;;;11.20;38.65;99736.13;4501327;31;35047;-86
2022/11/30 08:13:48;;;;;;;;;;;;;;;10.59;38.67;99747.81;4498694;31;34075;-85
2022/11/30 08:16:16;;;;;;;;;;;;;;;10.60;39.30;99741.78;4498818;31;34382;-84
2022/11/30 08:18:43;;;;;;;;;;;;;;;10.12;39.37;99744.13;4498867;31;33664;-87
2022/11/30 08:21:11;;;;;;;;;;;;;;;10.66;39.02;99749.72;4509945;31;34122;-85
2022/11/30 08:23:39;;;;;;;;;;;;;;;10.62;39.84;99747.03;4514749;31;33633;-85
2022/11/30 08:26:11;;;;;;;;;;;;;;;11.29;38.07;99732.84;4514583;31;34303;-85
2022/11/30 08:28:38;;;;;;;;;;;;;;;11.46;38.14;99725.34;4500727;31;34328;-85
2022/11/30 08:31:06;;;;;;;;;;;;;;;11.99;36.78;99724.56;4498569;31;33989;-87
2022/11/30 08:33:34;;;;;;;;;;;;;;;11.35;37.25;99721.69;4498656;31;34504;-87
2022/11/30 08:36:20;;;;;;;;;;;;;;;11.74;37.48;99720.63;4498633;31;34234;-85
2022/11/30 08:38:47;;;;;;;;;;;;;;;11.37;37.76;99720.00;4511422;31;34403;-86
2022/11/30 08:41:15;;;;;;;;;;;;;;;11.59;36.86;99722.12;4513159;31;34950;-87
2022/11/30 08:43:42;;;;;;;;;;;;;;;11.51;36.88;99721.09;4512746;31;34332;-86
2022/11/30 08:46:11;;;;;;;;;;;;;;;11.41;36.79;99712.28;4514480;31;35125;-87
2022/11/30 08:49:01;;;;;;;;;;;;;;;10.97;37.42;99724.41;4514351;31;33590;-87
2022/11/30 08:51:48;;;;;;;;;;;;;;;10.27;38.91;99726.37;4514309;31;35192;-86
2022/11/30 08:54:37;;;;;;;;;;;;;;;10.95;38.36;99727.00;4503503;31;34294;-86
2022/11/30 08:57:05;;;;;;;;;;;;;;;9.97;38.83;99734.28;4498280;31;34865;-85
2022/11/30 08:59:32;;;;;;;;;;;;;;;10.04;39.52;99731.00;4498254;31;34267;-87
2022/11/30 09:01:59;;;;;;;;;;;;;;;9.87;39.67;99734.87;4498294;31;34746;-86
2022/11/30 09:04:27;;;;;;;;;;;;;;;9.94;39.42;99723.84;4505961;31;34470;-86
2022/11/30 09:06:57;;;;;;;;;;;;;;;10.17;39.32;99732.16;4514059;31;34495;-86
2022/11/30 09:09:25;;;;;;;;;;;;;;;9.87;39.97;99732.28;4502858;31;34255;-87
2022/11/30 09:11:52;;;;;;;;;;;;;;;9.78;39.67;99734.66;4497886;31;35008;-85
2022/11/30 09:14:19;;;;;;;;;;;;;;;10.11;39.60;99735.47;4505519;31;35033;-84
2022/11/30 09:16:46;;;;;;;;;;;;;;;10.11;39.31;99732.88;4516255;31;35133;-87
2022/11/30 09:19:14;;;;;;;;;;;;;;;10.11;39.95;99735.47;4516010;31;33142;-85
2022/11/30 09:21:41;;;;;;;;;;;;;;;9.83;39.28;99733.94;4515728;31;35090;-85
2022/11/30 09:24:17;;;;;;;;;;;;;;;10.48;38.49;99733.75;4508939;31;34098;-87
2022/11/30 09:26:44;;;;;;;;;;;;;;;10.58;37.79;99734.84;4499812;31;34425;-87
2022/11/30 09:29:11;;;;;;;;;;;;;;;9.96;39.18;99740.28;4499751;31;33757;-86
2022/11/30 09:31:39;;;;;;;;;;;;;;;9.86;39.14;99740.91;4500356;31;34013;-85
2022/11/30 09:34:06;;;;;;;;;;;;;;;9.82;39.48;99739.97;4505357;31;34371;-86
2022/11/30 09:36:35;;;;;;;;;;;;;;;10.22;39.29;99739.19;4514858;31;34463;-86
2022/11/30 09:39:02;;;;;;;;;;;;;;;10.56;38.37;99734.78;4516007;31;34404;-85
2022/11/30 09:41:45;;;;;;;;;;;;;;;11.30;37.15;99736.31;4515990;31;35026;-86
2022/11/30 09:44:28;;;;;;;;;;;;;;;11.27;37.01;99729.31;4509766;31;35218;-85
2022/11/30 09:47:14;;;;;;;;;;;;;;;11.28;37.04;99725.00;4498564;31;34438;-86
2022/11/30 09:49:42;;;;;;;;;;;;;;;10.82;37.81;99731.88;4506397;31;34160;-83
2022/11/30 09:52:15;;;;;;;;;;;;;;;10.88;37.32;99729.44;4500973;31;34142;-87
2022/11/30 09:54:42;;;;;;;;;;;;;;;11.15;38.21;99719.59;4502888;31;34202;-84
2022/11/30 09:57:18;;;;;;;;;;;;;;;11.01;37.89;99722.75;4508032;31;35112;-85
2022/11/30 09:59:50;;;;;;;;;;;;;;;11.08;37.82;99714.25;4504401;31;33185;-87
2022/11/30 10:02:18;;;;;;;;;;;;;;;11.89;36.51;99716.63;4509790;31;33936;-84
2022/11/30 10:04:45;;;;;;;;;;;;;;;11.20;38.33;99717.06;4503168;31;32908;-85
2022/11/30 10:07:31;;;;;;;;;;;;;;;11.61;37.19;99715.22;4499429;31;34216;-87
2022/11/30 10:10:11;;;;;;;;;;;;;;;11.83;36.45;99711.31;4499427;31;34437;-84
2022/11/30 10:13:01;;;;;;;;;;;;;;;11.10;38.04;99713.44;4508538;31;35545;-85
2022/11/30 10:15:40;;;;;;;;;;;;;;;10.80;39.15;99716.31;4515181;31;34060;-85
2022/11/30 10:18:16;;;;;;;;;;;;;;;10.80;38.37;99713.72;4506003;31;35325;-86
2022/11/30 10:20:51;;;;;;;;;;;;;;;11.35;38.08;99700.91;4499144;31;34074;-87
2022/11/30 10:23:27;;;;;;;;;;;;;;;11.47;37.70;99689.88;4500927;31;34263;-86
2022/11/30 10:25:58;;;;;;;;;;;;;;;11.45;37.64;99692.44;4499289;31;34117;-86
2022/11/30 10:28:44;;;;;;;;;;;;;;;11.77;37.17;99684.31;4499240;31;34467;-87
2022/11/30 10:31:14;;;;;;;;;;;;;;;11.98;36.97;99684.69;4515507;31;33090;-84
2022/11/30 10:33:44;;;;;;;;;;;;;;;11.95;36.46;99686.38;4515728;31;34290;-84
2022/11/30 10:36:12;;;;;;;;;;;;;;;11.87;37.28;99684.53;4514192;31;34349;-87
2022/11/30 10:38:40;;;;;;;;;;;;;;;12.37;36.42;99684.41;4509489;31;35096;-84
2022/11/30 10:41:07;;;;;;;;;;;;;;;11.91;37.02;99685.44;4498321;31;34260;-84
2022/11/30 10:43:37;;;;;;;;;;;;;;;11.79;36.46;99682.63;4499491;31;33943;-87
2022/11/30 10:46:04;;;;;;;;;;;;;;;11.68;37.39;99688.53;4498236;31;34312;-86
2022/11/30 10:48:33;;;;;;;;;;;;;;;11.95;37.66;99683.78;4505628;31;35021;-86
2022/11/30 10:51:00;;;;;;;;;;;;;;;12.14;36.71;99694.47;4497390;31;34254;-84
2022/11/30 10:53:28;;;;;;;;;;;;;;;12.33;36.31;99687.81;4499241;31;35078;-84
2022/11/30 10:56:06;;;;;;;;;;;;;;;12.28;36.27;99683.41;4499337;31;34163;-83
2022/11/30 10:58:52;;;;;;;;;;;;;;;11.78;37.58;99683.47;4497653;31;34244;-86
2022/11/30 11:01:28;;;;;;;;;;;;;;;11.07;38.55;99689.16;4499322;31;33331;-85
2022/11/30 11:04:10;;;;;;;;;;;;;;;10.95;39.16;99688.06;4499212;31;35250;-85
2022/11/30 11:06:44;;;;;;;;;;;;;;;11.64;37.97;99686.72;4499214;31;35074;-85
2022/11/30 11:09:30;;;;;;;;;;;;;;;11.73;37.62;99687.72;4499171;31;34959;-86
2022/11/30 11:12:05;;;;;;;;;;;;;;;11.43;37.79;99683.75;4499591;31;33790;-85
2022/11/30 11:14:32;;;;;;;;;;;;;;;11.93;37.46;99675.94;4498133;31;33606;-85
2022/11/30 11:17:05;;;;;;;;;;;;;;;11.95;37.11;99683.78;4499209;31;35164;-85
2022/11/30 11:19:39;;;;;;;;;;;;;;;11.87;37.23;99686.25;4499030;31;34533;-85
2022/11/30 11:22:18;;;;;;;;;;;;;;;11.67;37.99;99681.59;4499033;31;33302;-85
2022/11/30 11:24:46;;;;;;;;;;;;;;;11.66;37.80;99679.81;4498990;31;33926;-85
2022/11/30 11:27:23;;;;;;;;;;;;;;;11.98;36.81;99686.44;4497803;31;34073;-85
2022/11/30 11:30:01;;;;;;;;;;;;;;;12.10;37.22;99686.59;4497691;31;34330;-85
2022/11/30 11:32:29;;;;;;;;;;;;;;;11.73;37.40;99685.12;4498142;31;34436;-85
2022/11/30 11:34:57;;;;;;;;;;;;;;;10.64;39.35;99699.53;4497646;31;34297;-85
2022/11/30 11:37:32;;;;;;;;;;;;;;;10.94;39.10;99699.28;4497901;31;35149;-86
2022/11/30 11:40:03;;;;;;;;;;;;;;;11.83;37.73;99689.63;4497741;31;34495;-85
2022/11/30 11:42:31;;;;;;;;;;;;;;;10.86;38.83;99690.47;4499467;31;32896;-85
2022/11/30 11:44:58;;;;;;;;;;;;;;;11.46;37.99;99689.00;4497814;31;33878;-85
2022/11/30 11:47:36;;;;;;;;;;;;;;;11.65;38.40;99691.06;4509884;31;34148;-85
2022/11/30 11:50:04;;;;;;;;;;;;;;;12.35;37.46;99695.63;4513292;31;34055;-84
2022/11/30 11:52:31;;;;;;;;;;;;;;;10.70;39.21;99698.78;4513653;31;34393;-84
2022/11/30 11:55:00;;;;;;;;;;;;;;;10.90;39.66;99691.41;4514782;31;33969;-85
2022/11/30 11:57:39;;;;;;;;;;;;;;;11.71;38.03;99676.44;4514837;31;34187;-85
2022/11/30 12:00:16;;;;;;;;;;;;;;;10.68;41.54;99674.53;4513519;31;34584;-85
2022/11/30 12:02:48;;;;;;;;;;;;;;;11.90;38.05;99670.72;4513657;31;34421;-85
2022/11/30 12:05:15;;;;;;;;;;;;;;;11.86;38.53;99669.81;4514721;31;33719;-85
2022/11/30 12:07:44;;;;;;;;;;;;;;;11.61;39.09;99665.87;4513512;31;34818;-85
2022/11/30 12:10:26;;;;;;;;;;;;;;;12.26;38.31;99659.09;4513103;31;34774;-85
2022/11/30 12:13:15;;;;;;;;;;;;;;;12.24;37.58;99664.28;4513282;31;33688;-85
2022/11/30 12:15:48;;;;;;;;;;;;;;;12.88;36.55;99657.31;4514910;31;34208;-85
2022/11/30 12:18:20;;;;;;;;;;;;;;;12.35;37.81;99659.22;4504959;31;33843;-85
2022/11/30 12:21:02;;;;;;;;;;;;;;;11.49;39.16;99664.81;4497552;31;35210;-86
2022/11/30 12:23:36;;;;;;;;;;;;;;;11.72;39.10;99665.19;4498738;31;33271;-85
2022/11/30 12:26:04;;;;;;;;;;;;;;;12.01;38.23;99656.16;4484392;31;33941;-85
2022/11/30 12:28:43;;;;;;;;;;;;;;;12.65;37.32;99649.22;4498500;31;34415;-85
2022/11/30 12:31:11;;;;;;;;;;;;;;;12.12;38.82;99644.22;4498508;31;33811;-85
2022/11/30 12:33:38;;;;;;;;;;;;;;;12.96;37.14;99646.97;4498330;31;33972;-85
2022/11/30 12:36:18;;;;;;;;;;;;;;;13.11;36.91;99641.06;4498688;31;34082;-85
2022/11/30 12:38:57;;;;;;;;;;;;;;;13.29;36.30;99643.84;4498354;31;35193;-85
2022/11/30 12:41:27;;;;;;;;;;;;;;;13.05;36.98;99654.00;4497170;31;33999;-85
2022/11/30 12:44:07;;;;;;;;;;;;;;;13.47;35.75;99656.19;4498029;31;33553;-85
2022/11/30 12:46:49;;;;;;;;;;;;;;;12.74;36.92;99653.66;4498436;31;34873;-87
2022/11/30 12:49:16;;;;;;;;;;;;;;;11.77;38.86;99658.34;4499211;31;35195;-87
2022/11/30 12:51:44;;;;;;;;;;;;;;;12.12;38.52;99646.81;4500200;31;34655;-85
2022/11/30 12:54:14;;;;;;;;;;;;;;;12.08;38.61;99649.31;4500183;31;33100;-85
2022/11/30 12:56:46;;;;;;;;;;;;;;;12.22;38.28;99644.31;4500541;31;33924;-85
2022/11/30 12:59:36;;;;;;;;;;;;;;;12.58;39.08;99643.94;4499051;31;33722;-83
2022/11/30 13:02:03;;;;;;;;;;;;;;;13.01;37.25;99636.59;4499389;31;34078;-83
2022/11/30 13:04:39;;;;;;;;;;;;;;;12.54;38.22;99639.53;4500306;31;33701;-83
2022/11/30 13:07:16;;;;;;;;;;;;;;;13.36;37.51;99639.59;4507755;31;34766;-86